Libertador San Martin (panama) — 3FWH3 — position and weather

sailwx.info

Track history (hours):
 
Tides and Currents Weather Stations Pressure Air Temp Water Temp Dewpoint Dewpoint Depression Visibility Wind Speed Wind Dir Waves Ship Positions

Libertador San Martin (panama)

Last reported at 2017-Oct-13 08:10 UTC. Time now 2017-Oct-17 04:26 UTC.
Position N 11°12' W 074°49'.

Length 151.6 m; beam 21 m.

Type: Ship (hazmat cat A). MMSI: 372224000.

Date/timePositionNaut miles runAvg speedWind from/ knotsBaromVisibWave heightAir tempDewpointWater temp
2017-Oct-13 08:10N 11°12' W 074°49'210.9
2017-Oct-13 08:00N 11°11' W 074°50'5 9.0
2017-Oct-13 07:28N 11°07' W 074°52'510.4
2017-Oct-13 07:00N 11°03' W 074°49'0 0.8
2017-Oct-13 06:29N 11°02' W 074°49'0 0.0
2017-Oct-13 05:56N 11°02' W 074°49'0 0.0
2017-Oct-13 05:29N 11°02' W 074°49'0 0.0
2017-Oct-13 04:59N 11°02' W 074°49'0 0.0
2017-Oct-13 04:29N 11°02' W 074°49'0 0.0
2017-Oct-13 03:59N 11°02' W 074°49'0 0.0
2017-Oct-13 03:29N 11°02' W 074°49'0 0.0
2017-Oct-13 02:59N 11°02' W 074°49'0 0.0
2017-Oct-13 02:29N 11°02' W 074°49'0 0.0
2017-Oct-13 01:59N 11°02' W 074°49'0 0.0
2017-Oct-13 01:29N 11°02' W 074°49'0 0.0
2017-Oct-13 00:59N 11°02' W 074°49'0 0.0
2017-Oct-13 00:29N 11°02' W 074°49'0 0.0
2017-Oct-12 23:59N 11°02' W 074°49'0 0.0
2017-Oct-12 23:29N 11°02' W 074°49'0 0.0
2017-Oct-12 22:59N 11°02' W 074°49'0 0.0
2017-Oct-12 22:29N 11°02' W 074°49'0 0.0
2017-Oct-12 21:59N 11°02' W 074°49'0 0.0
2017-Oct-12 21:29N 11°02' W 074°49'0 0.0
2017-Oct-12 20:59N 11°02' W 074°49'0 0.0
2017-Oct-12 20:29N 11°02' W 074°49'0 0.0
2017-Oct-12 19:59N 11°02' W 074°49'0 0.0
2017-Oct-12 19:29N 11°02' W 074°49'0 0.0
2017-Oct-12 18:59N 11°02' W 074°49'0 0.0
2017-Oct-12 18:29N 11°02' W 074°49'0 0.0
2017-Oct-12 17:59N 11°02' W 074°49'0 0.0
2017-Oct-12 17:29N 11°02' W 074°49'0 0.0
2017-Oct-12 16:59N 11°02' W 074°49'0 0.1
2017-Oct-12 16:29N 11°02' W 074°49'0 0.0
2017-Oct-12 15:59N 11°02' W 074°49'0 0.0
2017-Oct-12 15:29N 11°02' W 074°49'0 0.0
2017-Oct-12 14:59N 11°02' W 074°49'0 0.0
2017-Oct-12 14:29N 11°02' W 074°49'0 0.0
2017-Oct-12 13:59N 11°02' W 074°49'0 0.0
2017-Oct-12 13:26N 11°02' W 074°49'0 0.0
2017-Oct-12 12:50N 11°02' W 074°49'0 0.0
2017-Oct-12 07:05N 11°02' W 074°49'0 0.0
2017-Oct-12 06:59N 11°02' W 074°49'0 0.0
2017-Oct-12 04:47N 11°02' W 074°49'0 0.0
2017-Oct-12 04:29N 11°02' W 074°49'0 0.0
2017-Oct-12 03:38N 11°02' W 074°49'0 0.0
2017-Oct-11 23:14N 11°02' W 074°49'0 0.0
2017-Oct-11 22:59N 11°02' W 074°49'0 0.0
2017-Oct-11 22:29N 11°02' W 074°49'0 0.0
2017-Oct-11 21:59N 11°02' W 074°49'0 0.0
2017-Oct-11 21:29N 11°02' W 074°49'0 0.0
2017-Oct-11 20:59N 11°02' W 074°49'0 0.0
2017-Oct-11 20:29N 11°02' W 074°49'0 0.0
2017-Oct-11 19:59N 11°02' W 074°49'0 0.0
2017-Oct-11 19:29N 11°02' W 074°49'0 0.0
2017-Oct-11 18:59N 11°02' W 074°49'0 0.0
2017-Oct-11 18:29N 11°02' W 074°49'0 0.0
2017-Oct-11 17:59N 11°02' W 074°49'0 0.0
2017-Oct-11 17:29N 11°02' W 074°49'0 0.0
2017-Oct-11 17:00N 11°02' W 074°49'  
2017-Oct-05 04:46N 29°29' W 094°52'312.4
2017-Oct-05 04:30N 29°32' W 094°53'612.3
2017-Oct-05 04:00N 29°37' W 094°57'611.3
2017-Oct-05 03:30N 29°42' W 094°60'4 7.2
2017-Oct-05 03:00N 29°44' W 095°03'3 5.9
2017-Oct-05 02:31N 29°44' W 095°07'3 6.7
2017-Oct-05 02:00N 29°45' W 095°10'3 6.3
2017-Oct-05 01:30N 29°44' W 095°14'2 4.5
2017-Oct-05 01:00N 29°44' W 095°16'0 0.0
2017-Oct-05 00:28N 29°44' W 095°16'0 0.0
2017-Oct-04 23:55N 29°44' W 095°16'0 0.0
2017-Oct-04 23:28N 29°44' W 095°16'0 0.0
2017-Oct-04 22:58N 29°44' W 095°16'0 0.0
2017-Oct-04 22:28N 29°44' W 095°16'0 0.0
2017-Oct-04 21:58N 29°44' W 095°16'0 0.0
2017-Oct-04 21:28N 29°44' W 095°16'0 0.0
2017-Oct-04 20:58N 29°44' W 095°16'0 0.0
2017-Oct-04 19:07N 29°44' W 095°16'0 0.0
2017-Oct-04 18:58N 29°44' W 095°16'0 0.0
2017-Oct-04 18:19N 29°44' W 095°16'0 0.0
2017-Oct-04 17:58N 29°44' W 095°16'0 0.0
2017-Oct-04 16:01N 29°44' W 095°16'0 0.0
2017-Oct-04 15:49N 29°44' W 095°16'0 0.0
2017-Oct-04 12:37N 29°44' W 095°16'0 0.0
2017-Oct-04 11:49N 29°44' W 095°16'0 0.0
2017-Oct-04 11:25N 29°44' W 095°16'0 0.0
2017-Oct-04 10:58N 29°44' W 095°16'0 0.0
2017-Oct-04 10:28N 29°44' W 095°16'0 0.0
2017-Oct-04 09:58N 29°44' W 095°16'0 0.0
2017-Oct-04 09:28N 29°44' W 095°16'0 0.0
2017-Oct-04 08:43N 29°44' W 095°16'0 0.0
2017-Oct-04 08:28N 29°44' W 095°16'0 0.0
2017-Oct-04 07:58N 29°44' W 095°16'0 0.0
2017-Oct-04 07:25N 29°44' W 095°16'0 0.0
2017-Oct-04 06:55N 29°44' W 095°16'0 0.0
2017-Oct-04 06:22N 29°44' W 095°16'0 0.0
2017-Oct-04 05:58N 29°44' W 095°16'0 0.0
2017-Oct-04 05:19N 29°44' W 095°16'0 0.0
2017-Oct-04 04:55N 29°44' W 095°16'0 0.0
2017-Oct-04 04:28N 29°44' W 095°16'0 0.0
2017-Oct-04 03:58N 29°44' W 095°16'0 0.0
2017-Oct-04 03:28N 29°44' W 095°16'0 0.0
2017-Oct-04 02:49N 29°44' W 095°16'0 0.0
2017-Oct-04 02:16N 29°44' W 095°16'0 0.0
2017-Oct-04 01:55N 29°44' W 095°16'0 0.0
2017-Oct-04 01:25N 29°44' W 095°16'0 0.0
2017-Oct-03 23:04N 29°44' W 095°16'0 0.0
2017-Oct-03 22:55N 29°44' W 095°16'0 0.0
2017-Oct-03 22:22N 29°44' W 095°16'0 0.0
2017-Oct-03 21:55N 29°44' W 095°16'0 0.0
2017-Oct-03 20:49N 29°44' W 095°16'0 0.0
2017-Oct-03 20:19N 29°44' W 095°16'0 0.0
2017-Oct-03 19:49N 29°44' W 095°16'0 0.0
2017-Oct-03 19:28N 29°44' W 095°16'0 0.0
2017-Oct-03 18:52N 29°44' W 095°16'0 0.0
2017-Oct-03 18:22N 29°44' W 095°16'0 0.0
2017-Oct-03 16:04N 29°44' W 095°16'0 0.0
2017-Oct-03 15:46N 29°44' W 095°16'0 0.0
2017-Oct-03 15:28N 29°44' W 095°16'0 0.0
2017-Oct-03 14:52N 29°44' W 095°16'0 0.0
2017-Oct-03 13:55N 29°44' W 095°16'0 0.0
2017-Oct-03 12:10N 29°44' W 095°16'0 0.0
2017-Oct-03 11:37N 29°44' W 095°16'0 0.0
2017-Oct-03 11:25N 29°44' W 095°16'0 0.0
2017-Oct-03 10:58N 29°44' W 095°16'0 0.0
2017-Oct-03 10:25N 29°44' W 095°16'0 0.0
2017-Oct-03 09:58N 29°44' W 095°16'0 0.0
2017-Oct-03 09:28N 29°44' W 095°16'0 0.0
2017-Oct-03 08:58N 29°44' W 095°16'0 0.0
2017-Oct-03 08:28N 29°44' W 095°16'  
Track history (hours):
 
Tides and Currents Weather Stations Pressure Air Temp Water Temp Dewpoint Dewpoint Depression Visibility Wind Speed Wind Dir Waves Ship Positions

Libertador San Martin (panama)

Last reported at 2017-Oct-13 08:10 UTC. Time now 2017-Oct-17 04:26 UTC.
Position N 11°12' W 074°49'.

Length 151.6 m; beam 21 m.

Type: Ship (hazmat cat A). MMSI: 372224000.

Date/timePositionNaut miles runAvg speedWind from/ knotsBaromVisibWave heightAir tempDewpointWater temp
2017-Oct-13 08:10N 11°12' W 074°49'210.9
2017-Oct-13 08:00N 11°11' W 074°50'5 9.0
2017-Oct-13 07:28N 11°07' W 074°52'510.4
2017-Oct-13 07:00N 11°03' W 074°49'0 0.8
2017-Oct-13 06:29N 11°02' W 074°49'0 0.0
2017-Oct-13 05:56N 11°02' W 074°49'0 0.0
2017-Oct-13 05:29N 11°02' W 074°49'0 0.0
2017-Oct-13 04:59N 11°02' W 074°49'0 0.0
2017-Oct-13 04:29N 11°02' W 074°49'0 0.0
2017-Oct-13 03:59N 11°02' W 074°49'0 0.0
2017-Oct-13 03:29N 11°02' W 074°49'0 0.0
2017-Oct-13 02:59N 11°02' W 074°49'0 0.0
2017-Oct-13 02:29N 11°02' W 074°49'0 0.0
2017-Oct-13 01:59N 11°02' W 074°49'0 0.0
2017-Oct-13 01:29N 11°02' W 074°49'0 0.0
2017-Oct-13 00:59N 11°02' W 074°49'0 0.0
2017-Oct-13 00:29N 11°02' W 074°49'0 0.0
2017-Oct-12 23:59N 11°02' W 074°49'0 0.0
2017-Oct-12 23:29N 11°02' W 074°49'0 0.0
2017-Oct-12 22:59N 11°02' W 074°49'0 0.0
2017-Oct-12 22:29N 11°02' W 074°49'0 0.0
2017-Oct-12 21:59N 11°02' W 074°49'0 0.0
2017-Oct-12 21:29N 11°02' W 074°49'0 0.0
2017-Oct-12 20:59N 11°02' W 074°49'0 0.0
2017-Oct-12 20:29N 11°02' W 074°49'0 0.0
2017-Oct-12 19:59N 11°02' W 074°49'0 0.0
2017-Oct-12 19:29N 11°02' W 074°49'0 0.0
2017-Oct-12 18:59N 11°02' W 074°49'0 0.0
2017-Oct-12 18:29N 11°02' W 074°49'0 0.0
2017-Oct-12 17:59N 11°02' W 074°49'0 0.0
2017-Oct-12 17:29N 11°02' W 074°49'0 0.0
2017-Oct-12 16:59N 11°02' W 074°49'0 0.1
2017-Oct-12 16:29N 11°02' W 074°49'0 0.0
2017-Oct-12 15:59N 11°02' W 074°49'0 0.0
2017-Oct-12 15:29N 11°02' W 074°49'0 0.0
2017-Oct-12 14:59N 11°02' W 074°49'0 0.0
2017-Oct-12 14:29N 11°02' W 074°49'0 0.0
2017-Oct-12 13:59N 11°02' W 074°49'0 0.0
2017-Oct-12 13:26N 11°02' W 074°49'0 0.0
2017-Oct-12 12:50N 11°02' W 074°49'0 0.0
2017-Oct-12 07:05N 11°02' W 074°49'0 0.0
2017-Oct-12 06:59N 11°02' W 074°49'0 0.0
2017-Oct-12 04:47N 11°02' W 074°49'0 0.0
2017-Oct-12 04:29N 11°02' W 074°49'0 0.0
2017-Oct-12 03:38N 11°02' W 074°49'0 0.0
2017-Oct-11 23:14N 11°02' W 074°49'0 0.0
2017-Oct-11 22:59N 11°02' W 074°49'0 0.0
2017-Oct-11 22:29N 11°02' W 074°49'0 0.0
2017-Oct-11 21:59N 11°02' W 074°49'0 0.0
2017-Oct-11 21:29N 11°02' W 074°49'0 0.0
2017-Oct-11 20:59N 11°02' W 074°49'0 0.0
2017-Oct-11 20:29N 11°02' W 074°49'0 0.0
2017-Oct-11 19:59N 11°02' W 074°49'0 0.0
2017-Oct-11 19:29N 11°02' W 074°49'0 0.0
2017-Oct-11 18:59N 11°02' W 074°49'0 0.0
2017-Oct-11 18:29N 11°02' W 074°49'0 0.0
2017-Oct-11 17:59N 11°02' W 074°49'0 0.0
2017-Oct-11 17:29N 11°02' W 074°49'0 0.0
2017-Oct-11 17:00N 11°02' W 074°49'  
2017-Oct-05 04:46N 29°29' W 094°52'312.4
2017-Oct-05 04:30N 29°32' W 094°53'612.3
2017-Oct-05 04:00N 29°37' W 094°57'611.3
2017-Oct-05 03:30N 29°42' W 094°60'4 7.2
2017-Oct-05 03:00N 29°44' W 095°03'3 5.9
2017-Oct-05 02:31N 29°44' W 095°07'3 6.7
2017-Oct-05 02:00N 29°45' W 095°10'3 6.3
2017-Oct-05 01:30N 29°44' W 095°14'2 4.5
2017-Oct-05 01:00N 29°44' W 095°16'0 0.0
2017-Oct-05 00:28N 29°44' W 095°16'0 0.0
2017-Oct-04 23:55N 29°44' W 095°16'0 0.0
2017-Oct-04 23:28N 29°44' W 095°16'0 0.0
2017-Oct-04 22:58N 29°44' W 095°16'0 0.0
2017-Oct-04 22:28N 29°44' W 095°16'0 0.0
2017-Oct-04 21:58N 29°44' W 095°16'0 0.0
2017-Oct-04 21:28N 29°44' W 095°16'0 0.0
2017-Oct-04 20:58N 29°44' W 095°16'0 0.0
2017-Oct-04 19:07N 29°44' W 095°16'0 0.0
2017-Oct-04 18:58N 29°44' W 095°16'0 0.0
2017-Oct-04 18:19N 29°44' W 095°16'0 0.0
2017-Oct-04 17:58N 29°44' W 095°16'0 0.0
2017-Oct-04 16:01N 29°44' W 095°16'0 0.0
2017-Oct-04 15:49N 29°44' W 095°16'0 0.0
2017-Oct-04 12:37N 29°44' W 095°16'0 0.0
2017-Oct-04 11:49N 29°44' W 095°16'0 0.0
2017-Oct-04 11:25N 29°44' W 095°16'0 0.0
2017-Oct-04 10:58N 29°44' W 095°16'0 0.0
2017-Oct-04 10:28N 29°44' W 095°16'0 0.0
2017-Oct-04 09:58N 29°44' W 095°16'0 0.0
2017-Oct-04 09:28N 29°44' W 095°16'0 0.0
2017-Oct-04 08:43N 29°44' W 095°16'0 0.0
2017-Oct-04 08:28N 29°44' W 095°16'0 0.0
2017-Oct-04 07:58N 29°44' W 095°16'0 0.0
2017-Oct-04 07:25N 29°44' W 095°16'0 0.0
2017-Oct-04 06:55N 29°44' W 095°16'0 0.0
2017-Oct-04 06:22N 29°44' W 095°16'0 0.0
2017-Oct-04 05:58N 29°44' W 095°16'0 0.0
2017-Oct-04 05:19N 29°44' W 095°16'0 0.0
2017-Oct-04 04:55N 29°44' W 095°16'0 0.0
2017-Oct-04 04:28N 29°44' W 095°16'0 0.0
2017-Oct-04 03:58N 29°44' W 095°16'0 0.0
2017-Oct-04 03:28N 29°44' W 095°16'0 0.0
2017-Oct-04 02:49N 29°44' W 095°16'0 0.0
2017-Oct-04 02:16N 29°44' W 095°16'0 0.0
2017-Oct-04 01:55N 29°44' W 095°16'0 0.0
2017-Oct-04 01:25N 29°44' W 095°16'0 0.0
2017-Oct-03 23:04N 29°44' W 095°16'0 0.0
2017-Oct-03 22:55N 29°44' W 095°16'0 0.0
2017-Oct-03 22:22N 29°44' W 095°16'0 0.0
2017-Oct-03 21:55N 29°44' W 095°16'0 0.0
2017-Oct-03 20:49N 29°44' W 095°16'0 0.0
2017-Oct-03 20:19N 29°44' W 095°16'0 0.0
2017-Oct-03 19:49N 29°44' W 095°16'0 0.0
2017-Oct-03 19:28N 29°44' W 095°16'0 0.0
2017-Oct-03 18:52N 29°44' W 095°16'0 0.0
2017-Oct-03 18:22N 29°44' W 095°16'0 0.0
2017-Oct-03 16:04N 29°44' W 095°16'0 0.0
2017-Oct-03 15:46N 29°44' W 095°16'0 0.0
2017-Oct-03 15:28N 29°44' W 095°16'0 0.0
2017-Oct-03 14:52N 29°44' W 095°16'0 0.0
2017-Oct-03 13:55N 29°44' W 095°16'0 0.0
2017-Oct-03 12:10N 29°44' W 095°16'0 0.0
2017-Oct-03 11:37N 29°44' W 095°16'0 0.0
2017-Oct-03 11:25N 29°44' W 095°16'0 0.0
2017-Oct-03 10:58N 29°44' W 095°16'0 0.0
2017-Oct-03 10:25N 29°44' W 095°16'0 0.0
2017-Oct-03 09:58N 29°44' W 095°16'0 0.0
2017-Oct-03 09:28N 29°44' W 095°16'0 0.0
2017-Oct-03 08:58N 29°44' W 095°16'0 0.0
2017-Oct-03 08:28N 29°44' W 095°16'  

Dump ship's entire track history